createdAt,value
2022-08-04T00:01:41.552Z,95136.97
2022-08-04T00:04:34.710Z,95143.00
2022-08-04T00:07:43.864Z,95118.19
2022-08-04T00:10:13.642Z,95134.41
2022-08-04T00:12:43.511Z,95143.72
2022-08-04T00:15:14.943Z,95135.22
2022-08-04T00:17:59.579Z,95137.75
2022-08-04T00:20:30.384Z,95139.50
2022-08-04T00:22:58.137Z,95140.25
2022-08-04T00:25:25.670Z,95132.00
2022-08-04T00:27:52.695Z,95143.00
2022-08-04T00:30:19.408Z,95144.53
2022-08-04T00:32:46.295Z,95142.78
2022-08-04T00:35:17.380Z,95151.00
2022-08-04T00:37:47.521Z,95136.50
2022-08-04T00:40:19.789Z,95146.03
2022-08-04T00:42:59.073Z,95148.78
2022-08-04T00:46:10.905Z,95152.03
2022-08-04T00:48:53.592Z,95141.75
2022-08-04T00:51:33.789Z,95149.50
2022-08-04T00:54:35.531Z,95141.50
2022-08-04T00:57:34.669Z,95143.25
2022-08-04T01:00:13.455Z,95151.50
2022-08-04T01:03:04.768Z,95137.75
2022-08-04T01:05:46.921Z,95141.75
2022-08-04T01:08:16.103Z,95152.75
2022-08-04T01:10:48.731Z,95152.72
2022-08-04T01:13:34.257Z,95158.75
2022-08-04T01:16:05.348Z,95146.22
2022-08-04T01:18:44.185Z,95158.25
2022-08-04T01:21:29.101Z,95157.16
2022-08-04T01:24:14.300Z,95163.44
2022-08-04T01:27:06.176Z,95165.44
2022-08-04T01:29:49.223Z,95159.66
2022-08-04T01:32:28.005Z,95163.41
2022-08-04T01:35:05.482Z,95166.38
2022-08-04T01:38:01.756Z,95164.88
2022-08-04T01:40:45.575Z,95163.31
2022-08-04T01:43:14.131Z,95170.59
2022-08-04T01:45:41.893Z,95151.59
2022-08-04T01:48:08.852Z,95159.81
2022-08-04T01:50:37.078Z,95162.06
2022-08-04T01:53:04.966Z,95142.34
2022-08-04T01:55:55.102Z,95144.06
2022-08-04T01:58:19.675Z,95156.63
2022-08-04T02:01:05.106Z,95160.88
2022-08-04T02:04:18.417Z,95152.81
2022-08-04T02:06:36.737Z,95152.53
2022-08-04T02:09:10.449Z,95144.47
2022-08-04T02:11:40.203Z,95149.44
2022-08-04T02:14:38.107Z,95148.94
2022-08-04T02:17:19.860Z,95152.84
2022-08-04T02:20:19.970Z,95151.44
2022-08-04T02:23:01.462Z,95151.97
2022-08-04T02:25:32.594Z,95151.69
2022-08-04T02:28:30.072Z,95148.53
2022-08-04T02:30:56.673Z,95158.28
2022-08-04T02:33:35.641Z,95139.38
2022-08-04T02:36:04.437Z,95153.94
2022-08-04T02:38:36.869Z,95143.72
2022-08-04T02:41:05.922Z,95152.03
2022-08-04T02:43:50.848Z,95150.19
2022-08-04T02:46:20.550Z,95161.19
2022-08-04T02:48:48.857Z,95153.94
2022-08-04T02:51:18.125Z,95155.69
2022-08-04T02:53:47.052Z,95163.69
2022-08-04T02:56:18.909Z,95159.13
2022-08-04T02:58:49.236Z,95151.38
2022-08-04T03:01:15.895Z,95157.16
2022-08-04T03:03:59.572Z,95158.50
2022-08-04T03:06:40.199Z,95162.16
2022-08-04T03:09:54.843Z,95172.72
2022-08-04T03:12:46.342Z,95164.22
2022-08-04T03:15:30.054Z,95160.31
2022-08-04T03:18:15.195Z,95161.91
2022-08-04T03:21:08.060Z,95172.75
2022-08-04T03:23:43.429Z,95170.00
2022-08-04T03:26:25.076Z,95160.47
2022-08-04T03:29:26.475Z,95157.25
2022-08-04T03:32:25.468Z,95168.44
2022-08-04T03:35:13.461Z,95161.00
2022-08-04T03:37:58.868Z,95161.50
2022-08-04T03:40:40.528Z,95149.38
2022-08-04T03:43:57.785Z,95155.47
2022-08-04T03:46:41.564Z,95162.28
2022-08-04T03:49:48.412Z,95160.72
2022-08-04T03:53:11.156Z,95154.41
2022-08-04T03:56:02.145Z,95169.53
2022-08-04T03:58:52.762Z,95157.72
2022-08-04T04:01:19.298Z,95165.56
2022-08-04T04:04:19.710Z,95157.88
2022-08-04T04:06:54.154Z,95159.47
2022-08-04T04:10:11.593Z,95163.38
2022-08-04T04:12:56.267Z,95169.22
2022-08-04T16:22:31.402Z,94980.13
2022-08-04T16:24:58.360Z,94979.41
2022-08-04T16:27:42.498Z,94924.63
2022-08-04T16:30:14.455Z,94985.25
2022-08-04T16:32:46.395Z,94986.38
2022-08-04T16:35:21.437Z,94983.09
2022-08-04T16:37:48.133Z,94982.75
2022-08-04T16:40:38.179Z,94983.94
2022-08-04T16:43:09.657Z,94984.81
2022-08-04T16:45:51.225Z,94986.78
2022-08-04T16:48:18.964Z,94986.63
2022-08-04T16:50:49.347Z,94983.50
2022-08-04T16:54:02.825Z,94980.66
2022-08-04T16:56:05.976Z,94995.47
2022-08-04T16:58:36.678Z,94985.34
2022-08-04T17:01:32.945Z,94995.38
2022-08-04T17:04:05.236Z,94968.44
2022-08-04T17:06:40.582Z,94997.84
2022-08-04T17:09:11.935Z,95001.53
2022-08-04T17:11:38.707Z,94984.03
2022-08-04T17:14:06.423Z,94985.72
2022-08-04T17:16:35.641Z,94995.88
2022-08-04T17:19:03.723Z,95002.88
2022-08-04T17:21:32.637Z,95004.47
2022-08-04T17:24:14.327Z,95003.25
2022-08-04T17:26:52.032Z,95007.97
2022-08-04T17:29:42.862Z,95013.91
2022-08-04T17:32:19.780Z,95019.75
2022-08-04T17:34:51.324Z,95020.59
2022-08-04T17:37:41.282Z,95021.50
2022-08-04T17:40:12.199Z,95020.91
2022-08-04T17:42:40.456Z,95024.97
2022-08-04T17:48:00.360Z,95034.94
2022-08-04T17:50:34.842Z,95026.50
2022-08-04T17:53:12.155Z,95039.72
2022-08-04T17:55:47.126Z,95038.13
2022-08-04T17:58:22.236Z,95043.34
2022-08-04T18:01:23.738Z,95034.28
2022-08-04T18:03:51.593Z,95037.25
2022-08-04T18:06:20.970Z,95045.44
2022-08-04T18:08:59.057Z,95032.97
2022-08-04T18:11:41.795Z,95048.81
2022-08-04T18:14:10.410Z,95046.94
2022-08-04T18:16:46.600Z,95023.69
2022-08-04T18:19:18.974Z,95052.75
2022-08-04T18:22:00.012Z,95060.50
2022-08-04T18:24:36.009Z,95031.09
2022-08-04T18:27:24.077Z,95053.63
2022-08-04T18:30:34.088Z,95052.16
2022-08-04T18:33:04.295Z,95058.28
2022-08-04T18:36:31.373Z,95051.59
2022-08-04T18:38:22.366Z,95056.78
2022-08-04T18:40:54.644Z,95051.53
2022-08-04T18:43:28.174Z,95064.91
2022-08-04T18:45:58.088Z,95065.06
2022-08-04T18:48:36.135Z,95062.25
2022-08-04T18:51:23.065Z,95062.25
2022-08-04T18:53:58.333Z,95072.63
2022-08-04T18:56:29.810Z,95066.25
2022-08-04T18:59:01.883Z,95077.22
2022-08-04T19:02:12.792Z,95075.47
2022-08-04T19:04:33.248Z,95073.16
2022-08-04T19:07:29.652Z,95083.59
2022-08-04T19:09:53.770Z,95070.06
2022-08-04T19:12:26.740Z,95079.59
2022-08-04T19:14:58.806Z,95060.94
2022-08-04T19:17:54.149Z,95088.06
2022-08-04T19:20:25.741Z,95088.22
2022-08-04T19:24:28.243Z,95076.88
2022-08-04T19:26:03.872Z,95089.69
2022-08-04T19:28:33.976Z,95082.47
2022-08-04T19:31:01.862Z,95083.31
2022-08-04T19:33:55.392Z,95089.09
2022-08-04T19:36:17.148Z,95091.81
2022-08-04T19:38:45.775Z,95094.28
2022-08-04T19:41:18.228Z,95094.38
2022-08-04T19:43:47.114Z,95096.38
2022-08-04T19:46:17.736Z,95069.41
2022-08-04T19:48:59.133Z,95063.94
2022-08-04T19:51:33.380Z,95063.28
2022-08-04T19:54:02.855Z,95093.84
2022-08-04T19:56:40.151Z,95094.28
2022-08-04T19:59:28.408Z,95079.53
2022-08-04T20:02:03.466Z,95082.03
2022-08-04T20:04:31.225Z,95092.78
2022-08-04T20:07:02.716Z,95089.38
2022-08-04T20:09:37.341Z,95086.16
2022-08-04T20:12:05.221Z,95092.56
2022-08-04T20:14:33.306Z,95083.28
2022-08-04T20:17:10.592Z,95088.94
2022-08-04T20:19:39.166Z,95072.81
2022-08-04T20:22:50.912Z,95088.94
2022-08-04T20:25:17.965Z,95106.00
2022-08-04T20:28:00.272Z,95112.44
2022-08-04T20:30:37.448Z,95030.44
2022-08-04T20:33:06.918Z,95094.91
2022-08-04T20:36:00.622Z,95090.13
2022-08-04T20:38:33.606Z,95101.22
2022-08-04T20:41:05.103Z,95097.91
2022-08-04T20:43:35.417Z,95115.19
2022-08-04T20:46:18.224Z,95093.41
2022-08-04T20:48:51.614Z,95106.72
2022-08-04T20:51:20.008Z,95104.25
2022-08-04T20:53:59.064Z,95107.22
2022-08-04T20:56:31.158Z,95110.72
2022-08-04T20:59:07.901Z,95117.47
2022-08-04T21:01:34.926Z,95110.09
2022-08-04T21:04:28.020Z,95106.75
2022-08-04T21:06:57.399Z,95116.34
2022-08-04T21:09:26.542Z,95116.34
2022-08-04T21:12:05.090Z,95119.47
2022-08-04T21:14:31.775Z,95115.50
2022-08-04T21:16:58.957Z,95110.59
2022-08-04T21:19:27.120Z,95106.59
2022-08-04T21:21:54.373Z,95117.53
2022-08-04T21:24:25.883Z,95108.94
2022-08-04T21:26:56.619Z,95116.66
2022-08-04T21:32:13.109Z,95112.81
2022-08-04T21:34:40.603Z,95113.63
2022-08-04T21:37:11.183Z,95114.53
2022-08-04T21:39:50.717Z,95111.75
2022-08-04T21:42:29.425Z,95121.50
2022-08-04T21:44:57.695Z,95110.34
2022-08-04T21:47:24.490Z,95107.31
2022-08-04T21:49:56.940Z,95115.25
2022-08-04T21:52:24.551Z,95121.78
2022-08-04T21:54:54.625Z,95112.63
2022-08-04T21:57:24.666Z,95112.59
2022-08-04T21:59:51.763Z,95120.78
2022-08-04T22:02:18.457Z,95125.69
2022-08-04T22:04:45.235Z,95129.22
2022-08-04T22:07:12.519Z,95126.50
2022-08-04T22:10:00.255Z,95123.91
2022-08-04T22:12:29.859Z,95131.00
2022-08-04T22:14:57.646Z,95112.81
2022-08-04T22:17:29.485Z,95113.63
2022-08-04T22:20:02.839Z,95097.50
2022-08-04T22:22:30.097Z,95121.19
2022-08-04T22:25:02.002Z,95112.19
2022-08-04T22:27:58.058Z,95121.53
2022-08-04T22:30:29.154Z,95116.00
2022-08-04T22:33:00.396Z,95122.59
2022-08-04T22:35:35.546Z,95111.13
2022-08-04T22:38:21.322Z,95108.66
2022-08-04T22:41:00.141Z,95118.16
2022-08-04T22:43:32.602Z,95108.94
2022-08-04T22:46:01.807Z,95110.00
2022-08-04T22:48:32.111Z,95103.72
2022-08-04T22:50:59.902Z,95110.31
2022-08-04T22:53:26.729Z,95109.56
2022-08-04T22:56:07.314Z,95105.31
2022-08-04T22:58:45.841Z,95111.41
2022-08-04T23:01:18.420Z,95098.13
2022-08-04T23:03:51.052Z,95110.56
2022-08-04T23:06:25.117Z,95115.34
2022-08-04T23:08:52.709Z,95116.31
2022-08-04T23:11:19.447Z,95100.47
2022-08-04T23:13:46.038Z,95112.31
2022-08-04T23:16:14.315Z,95117.13
2022-08-04T23:18:42.362Z,95120.00
2022-08-04T23:21:12.571Z,95121.84
2022-08-04T23:23:45.489Z,95109.28
2022-08-04T23:26:27.629Z,95115.06
2022-08-04T23:28:58.147Z,95114.13
2022-08-04T23:31:25.320Z,95116.97
2022-08-04T23:34:08.792Z,95114.22
2022-08-04T23:36:35.512Z,95122.59
2022-08-04T23:39:05.616Z,95113.56
2022-08-04T23:41:53.659Z,95119.31
2022-08-04T23:44:24.839Z,95115.53
2022-08-04T23:47:02.861Z,95112.28
2022-08-04T23:49:43.888Z,95108.50
2022-08-04T23:52:23.068Z,95109.31
2022-08-04T23:54:55.214Z,95102.84
2022-08-04T23:57:22.305Z,95112.06
2022-08-04T23:59:54.142Z,95109.34
